logo
Search for airport 
image banner adimage banner adimage banner ad
image banner ad

MMHUQ - Hospital General De Teziutlan

Located in Teziutlan, Mexico

ICAO - , IATA -

Data provided by Airmate  

General information

Coordinates: N19°49'19" W97°22'37"
Elevation is 6302 feet MSL.
Magnetic variation is 3° East
View others Airports in Puebla

Operational data

Special qualification required
Current time UTC:
Current local time:
Weather at : - ( 0 km )
METAR: YPJT 301918Z AUTO 03008KT 9999 // SCT003 BKN036 13/12 Q1018
View NOTAMs / SUP AIP / TFR affecting this airport [VIEW]
Communications frequencies: [VIEW]

Runways:

Airport contact information

Address: Teziutlan Mexico

Satellite view of MMHUQ